Big Bear Station Historical Data
Daily Summary for June 4, 2019 Units:  Metric    English   Both
Next Day »
Daily Weekly Monthly Yearly Custom
  High: Low: Average:
Temperature: 25.5 °C 5.7 °C 15 °C
Dew Point: 9.9 °C 2.4 °C 5.9 °C
Humidity: 96% 26% 61%
Wind Speed: 11.7km/h 0km/h 2.4km/h
Wind Gust: -1607.7km/h - -
Wind- - West
Pressure: 798.1 hPa 795.7 hPa -
Precipitation: 0 mm    
Historical Graphs
 
 
Tabular Data for June 4, 2019
Time Temperature Dew Point Pressure Wind Wind Speed Wind Gust Humidity Rainfall Rate (Hourly)
00:15 10.2 °C 7.1 °C 796 hPa Calm   -1607.7 km/h 81% 0 mm
00:30 10.1 °C 7.2 °C 795.7 hPa Calm   -1607.7 km/h 82% 0 mm
00:45 9.8 °C 7 °C 796 hPa SSE 4.3 km/h -1607.7 km/h 83% 0 mm
01:00 9.5 °C 6.9 °C 795.7 hPa Calm   -1607.7 km/h 84% 0 mm
01:15 9.2 °C 6.8 °C 795.7 hPa South 4.3 km/h -1607.7 km/h 85% 0 mm
01:31 8.9 °C 6.7 °C 795.7 hPa Calm   -1607.7 km/h 86% 0 mm
01:46 8.5 °C 6.3 °C 795.7 hPa Calm   -1607.7 km/h 86% 0 mm
02:01 8.3 °C 6.2 °C 795.7 hPa Calm   -1607.7 km/h 87% 0 mm
02:16 8.1 °C 6.1 °C 795.7 hPa Calm   -1607.7 km/h 87% 0 mm
02:32 7.7 °C 5.8 °C 795.7 hPa Calm   -1607.7 km/h 88% 0 mm
02:47 7.3 °C 5.4 °C 795.7 hPa Calm   -1607.7 km/h 88% 0 mm
03:02 7.2 °C 5.7 °C 795.7 hPa Calm   -1607.7 km/h 90% 0 mm
03:17 7.1 °C 5.9 °C 795.7 hPa Calm   -1607.7 km/h 92% 0 mm
03:32 6.8 °C 5.7 °C 796 hPa Calm   -1607.7 km/h 93% 0 mm
03:48 6.6 °C 5.6 °C 796 hPa Calm   -1607.7 km/h 93% 0 mm
04:03 6.5 °C 5.3 °C 796 hPa Calm   -1607.7 km/h 92% 0 mm
04:18 6.4 °C 5.3 °C 796 hPa Calm   -1607.7 km/h 93% 0 mm
04:33 6.3 °C 5.2 °C 796 hPa Calm   -1607.7 km/h 93% 0 mm
04:48 6.2 °C 5.2 °C 796 hPa Calm   -1607.7 km/h 93% 0 mm
05:04 6 °C 5.1 °C 796 hPa Calm   -1607.7 km/h 94% 0 mm
05:19 5.9 °C 5.2 °C 796 hPa Calm   -1607.7 km/h 95% 0 mm
05:34 5.8 °C 5.1 °C 796 hPa Calm   -1607.7 km/h 95% 0 mm
05:49 5.8 °C 5.2 °C 796.4 hPa Calm   -1607.7 km/h 96% 0 mm
06:04 5.7 °C 5.1 °C 796.4 hPa Calm   -1607.7 km/h 96% 0 mm
06:20 5.8 °C 5.2 °C 796.7 hPa Calm   -1607.7 km/h 96% 0 mm
06:35 5.8 °C 5.2 °C 796.7 hPa Calm   -1607.7 km/h 96% 0 mm
06:50 6 °C 5.4 °C 796.7 hPa Calm   -1607.7 km/h 96% 0 mm
07:05 6.3 °C 5.6 °C 797.1 hPa Calm   -1607.7 km/h 95% 0 mm
07:21 6.6 °C 5.9 °C 797.1 hPa Calm   -1607.7 km/h 95% 0 mm
07:36 7.3 °C 6.6 °C 797.1 hPa Calm   -1607.7 km/h 95% 0 mm
07:51 8 °C 7.4 °C 797.1 hPa Calm   -1607.7 km/h 96% 0 mm
08:06 8.9 °C 8.1 °C 797.1 hPa Calm   -1607.7 km/h 95% 0 mm
08:21 9.7 °C 8 °C 797.1 hPa Calm   -1607.7 km/h 89% 0 mm
08:37 10.8 °C 8.7 °C 797.1 hPa Calm   -1607.7 km/h 87% 0 mm
08:52 11.7 °C 9.3 °C 797.4 hPa Calm   -1607.7 km/h 85% 0 mm
09:07 13.5 °C 9.7 °C 797.4 hPa Calm   -1607.7 km/h 78% 0 mm
09:22 15.7 °C 4.1 °C 797.4 hPa NNW 4.3 km/h -1607.7 km/h 46% 0 mm
09:37 17.2 °C 3.8 °C 797.4 hPa Calm   -1607.7 km/h 41% 0 mm
09:53 18.2 °C 4.4 °C 797.4 hPa NNE 8.5 km/h -1607.7 km/h 40% 0 mm
10:08 18.6 °C 2.4 °C 797.4 hPa ESE 1.8 km/h -1607.7 km/h 34% 0 mm
10:23 18.9 °C 3.1 °C 797.4 hPa WNW 11.7 km/h -1607.7 km/h 35% 0 mm
10:38 19.5 °C 3.6 °C 797.7 hPa NNW 6.8 km/h -1607.7 km/h 35% 0 mm
10:53 19.8 °C 4.3 °C 797.7 hPa NE 3.5 km/h -1607.7 km/h 36% 0 mm
11:09 20.2 °C 4.7 °C 797.7 hPa North 6.8 km/h -1607.7 km/h 36% 0 mm
11:24 20.8 °C 3.5 °C 797.7 hPa NW 6.8 km/h -1607.7 km/h 32% 0 mm
11:40 21.3 °C 3.4 °C 797.7 hPa NE 7.6 km/h -1607.7 km/h 31% 0 mm
11:55 22.3 °C 5.2 °C 797.7 hPa NNW 6.8 km/h -1607.7 km/h 33% 0 mm
12:10 23.3 °C 3.7 °C 797.7 hPa NNW 8.5 km/h -1607.7 km/h 28% 0 mm
12:26 23.5 °C 4.4 °C 797.7 hPa NW 9.3 km/h -1607.7 km/h 29% 0 mm
12:41 23.7 °C 3.1 °C 797.7 hPa ESE 5.1 km/h -1607.7 km/h 26% 0 mm
12:56 24.6 °C 4.9 °C 797.7 hPa WNW 8.5 km/h -1607.7 km/h 28% 0 mm
13:11 23.8 °C 4.7 °C 797.4 hPa WNW 8.5 km/h -1607.7 km/h 29% 0 mm
13:26 23.5 °C 3.9 °C 797.4 hPa WNW 3.5 km/h -1607.7 km/h 28% 0 mm
13:42 22.9 °C 3.9 °C 797.4 hPa NW 4.3 km/h -1607.7 km/h 29% 0 mm
13:57 23.3 °C 5.2 °C 797.4 hPa NNW 4.3 km/h -1607.7 km/h 31% 0 mm
14:12 24.7 °C 5.5 °C 797.4 hPa NW 7.6 km/h -1607.7 km/h 29% 0 mm
14:27 24.3 °C 5.1 °C 797.1 hPa West 3.5 km/h -1607.7 km/h 29% 0 mm
14:42 24.3 °C 4.6 °C 797.1 hPa NNE 3.5 km/h -1607.7 km/h 28% 0 mm
14:58 24.6 °C 5.4 °C 797.1 hPa North 9.3 km/h -1607.7 km/h 29% 0 mm
15:13 24.4 °C 4.7 °C 797.1 hPa NNW 3.5 km/h -1607.7 km/h 28% 0 mm
15:28 24.4 °C 5.2 °C 796.7 hPa NW 6 km/h -1607.7 km/h 29% 0 mm
15:43 23.9 °C 7.1 °C 797.1 hPa WNW 7.6 km/h -1607.7 km/h 34% 0 mm
15:59 23.3 °C 5.7 °C 796.7 hPa North 7.6 km/h -1607.7 km/h 32% 0 mm
16:14 23.5 °C 5.8 °C 796.7 hPa SSW 5.1 km/h -1607.7 km/h 32% 0 mm
16:29 23.7 °C 6.5 °C 796.7 hPa NW 8.5 km/h -1607.7 km/h 33% 0 mm
16:44 25 °C 5.2 °C 796.4 hPa NNW 7.6 km/h -1607.7 km/h 28% 0 mm
17:00 25.5 °C 5.7 °C 796.7 hPa WNW 7.6 km/h -1607.7 km/h 28% 0 mm
17:15 24.8 °C 7.8 °C 796.4 hPa NNW 2.7 km/h -1607.7 km/h 34% 0 mm
17:30 25 °C 8.1 °C 796.4 hPa Calm   -1607.7 km/h 34% 0 mm
17:45 24 °C 9.9 °C 796.4 hPa Calm   -1607.7 km/h 41% 0 mm
18:01 23.4 °C 9.4 °C 796.4 hPa West 6 km/h -1607.7 km/h 41% 0 mm
18:17 21.4 °C 8.3 °C 796.4 hPa WNW 4.3 km/h -1607.7 km/h 43% 0 mm
18:32 20.5 °C 8.8 °C 796.7 hPa NW 6.8 km/h -1607.7 km/h 47% 0 mm
18:47 21.1 °C 8.4 °C 796.7 hPa West 1.8 km/h -1607.7 km/h 44% 0 mm
19:02 20.2 °C 7.2 °C 796.7 hPa Calm   -1607.7 km/h 43% 0 mm
19:18 20 °C 7.4 °C 796.7 hPa Calm   -1607.7 km/h 44% 0 mm
19:33 18.4 °C 6.6 °C 796.7 hPa Calm   -1607.7 km/h 46% 0 mm
19:48 16.5 °C 6.6 °C 796.7 hPa Calm   -1607.7 km/h 52% 0 mm
20:03 15.9 °C 6.3 °C 797.1 hPa Calm   -1607.7 km/h 53% 0 mm
20:18 14.9 °C 6.9 °C 797.1 hPa Calm   -1607.7 km/h 59% 0 mm
20:34 14.6 °C 6.2 °C 797.4 hPa Calm   -1607.7 km/h 57% 0 mm
20:49 14.2 °C 5.6 °C 797.4 hPa Calm   -1607.7 km/h 56% 0 mm
21:04 13.4 °C 5.8 °C 797.4 hPa Calm   -1607.7 km/h 60% 0 mm
21:19 13 °C 6.3 °C 797.7 hPa Calm   -1607.7 km/h 64% 0 mm
21:35 12.7 °C 6.3 °C 797.7 hPa Calm   -1607.7 km/h 65% 0 mm
21:50 12.3 °C 5.9 °C 798.1 hPa Calm   -1607.7 km/h 65% 0 mm
22:05 12 °C 6.3 °C 798.1 hPa Calm   -1607.7 km/h 68% 0 mm
22:21 11.7 °C 6.4 °C 798.1 hPa Calm   -1607.7 km/h 70% 0 mm
22:36 11.4 °C 5.9 °C 798.1 hPa Calm   -1607.7 km/h 69% 0 mm
22:51 11.2 °C 5.9 °C 798.1 hPa Calm   -1607.7 km/h 70% 0 mm
23:06 10.9 °C 5.8 °C 798.1 hPa Calm   -1607.7 km/h 71% 0 mm
23:21 10.7 °C 5.4 °C 797.7 hPa Calm   -1607.7 km/h 70% 0 mm
23:37 10.5 °C 5.3 °C 797.7 hPa Calm   -1607.7 km/h 70% 0 mm
23:52 10.3 °C 5.7 °C 798.1 hPa Calm   -1607.7 km/h 73% 0 mm
Big Bear CA Weather